createdAt,value
2022-09-18T00:00:14.956Z,10.10
2022-09-18T00:02:41.956Z,10.10
2022-09-18T00:05:10.551Z,10.10
2022-09-18T00:07:37.551Z,10.00
2022-09-18T00:10:05.013Z,10.00
2022-09-18T00:12:32.171Z,10.00
2022-09-18T00:14:59.170Z,10.00
2022-09-18T00:17:26.186Z,10.00
2022-09-18T00:19:53.905Z,10.00
2022-09-18T00:22:20.924Z,10.00
2022-09-18T00:24:48.014Z,10.00
2022-09-18T00:27:14.927Z,10.00
2022-09-18T00:29:41.822Z,10.00
2022-09-18T00:32:08.826Z,10.00
2022-09-18T00:34:35.830Z,10.00
2022-09-18T00:37:02.720Z,9.90
2022-09-18T00:39:29.691Z,9.90
2022-09-18T00:41:56.698Z,9.90
2022-09-18T00:44:35.731Z,9.90
2022-09-18T00:47:12.069Z,9.80
2022-09-18T00:49:59.767Z,9.80
2022-09-18T00:52:33.250Z,9.90
2022-09-18T00:55:06.392Z,9.90
2022-09-18T00:57:35.651Z,9.90
2022-09-18T01:00:04.941Z,9.90
2022-09-18T01:02:32.035Z,9.90
2022-09-18T01:04:59.025Z,9.90
2022-09-18T01:07:29.136Z,9.90
2022-09-18T01:09:58.943Z,9.80
2022-09-18T01:12:52.426Z,9.90
2022-09-18T01:15:49.980Z,9.90
2022-09-18T01:18:40.004Z,9.90
2022-09-18T01:21:15.858Z,9.80
2022-09-18T01:24:37.093Z,9.80
2022-09-18T01:27:31.250Z,9.80
2022-09-18T01:30:05.946Z,9.80
2022-09-18T01:32:46.600Z,9.80
2022-09-18T01:35:40.127Z,9.80
2022-09-18T01:38:09.188Z,9.70
2022-09-18T01:40:42.830Z,9.80
2022-09-18T01:43:13.452Z,9.70
2022-09-18T01:46:04.113Z,9.70
2022-09-18T01:48:51.682Z,9.60
2022-09-18T01:51:27.483Z,9.60
2022-09-18T01:54:12.970Z,9.50
2022-09-18T01:56:57.189Z,9.50
2022-09-18T01:59:54.233Z,9.50
2022-09-18T02:02:28.289Z,9.40
2022-09-18T02:05:00.508Z,9.40
2022-09-18T02:07:39.692Z,9.50
2022-09-18T02:10:08.427Z,9.40
2022-09-18T02:12:38.395Z,9.40
2022-09-18T02:15:11.117Z,9.40
2022-09-18T02:17:49.130Z,9.40
2022-09-18T02:20:26.945Z,9.40
2022-09-18T02:23:01.275Z,9.40
2022-09-18T02:25:35.292Z,9.40
2022-09-18T02:28:04.283Z,9.40
2022-09-18T02:30:31.669Z,9.30
2022-09-18T02:32:59.063Z,9.30
2022-09-18T02:35:34.362Z,9.30
2022-09-18T02:38:41.469Z,9.40
2022-09-18T02:41:19.229Z,9.30
2022-09-18T02:44:01.642Z,9.30
2022-09-18T02:46:53.899Z,9.20
2022-09-18T02:49:31.092Z,9.20
2022-09-18T02:52:10.852Z,9.20
2022-09-18T02:54:45.306Z,9.20
2022-09-18T02:57:20.872Z,9.10
2022-09-18T02:59:57.766Z,9.20
2022-09-18T03:02:26.418Z,9.10
2022-09-18T03:04:53.835Z,9.10
2022-09-18T03:07:21.040Z,9.10
2022-09-18T03:09:48.319Z,9.10
2022-09-18T03:12:15.307Z,9.10
2022-09-18T03:14:42.412Z,9.10
2022-09-18T03:17:10.256Z,9.10
2022-09-18T03:19:37.134Z,9.10
2022-09-18T03:22:04.263Z,9.00
2022-09-18T03:24:31.297Z,9.00
2022-09-18T03:26:58.240Z,9.00
2022-09-18T03:29:25.268Z,9.10
2022-09-18T03:31:52.511Z,9.10
2022-09-18T03:34:19.582Z,9.10
2022-09-18T03:36:47.346Z,9.10
2022-09-18T03:39:16.224Z,9.00
2022-09-18T03:41:43.326Z,9.00
2022-09-18T03:44:10.386Z,9.00
2022-09-18T03:46:37.542Z,9.00
2022-09-18T03:49:04.770Z,9.00
2022-09-18T03:51:31.798Z,9.10
2022-09-18T03:53:59.577Z,9.00
2022-09-18T03:56:26.571Z,9.10
2022-09-18T03:58:53.991Z,9.10
2022-09-18T04:01:21.275Z,9.10
2022-09-18T04:03:48.297Z,9.10
2022-09-18T04:06:15.491Z,9.10
2022-09-18T04:08:42.436Z,9.00
2022-09-18T04:11:09.385Z,9.00
2022-09-18T04:13:36.352Z,9.00
2022-09-18T04:16:03.482Z,9.10
2022-09-18T04:18:31.182Z,9.10
2022-09-18T04:20:58.294Z,9.20
2022-09-18T04:23:25.229Z,9.20
2022-09-18T04:25:52.179Z,9.20
2022-09-18T04:28:19.246Z,9.30
2022-09-18T04:30:47.438Z,9.30
2022-09-18T04:33:15.989Z,9.30
2022-09-18T04:35:43.365Z,9.30
2022-09-18T04:38:10.553Z,9.30
2022-09-18T04:40:37.556Z,9.30
2022-09-18T04:43:05.155Z,9.30
2022-09-18T04:45:32.099Z,9.30
2022-09-18T04:47:59.009Z,9.30
2022-09-18T04:50:26.514Z,9.30
2022-09-18T04:52:54.157Z,9.30
2022-09-18T04:55:21.184Z,9.40
2022-09-18T04:57:52.379Z,9.30
2022-09-18T05:00:21.401Z,9.40
2022-09-18T05:02:48.426Z,9.40
2022-09-18T05:05:15.526Z,9.40
2022-09-18T05:07:42.503Z,9.40
2022-09-18T05:10:10.807Z,9.50
2022-09-18T05:12:40.753Z,9.40
2022-09-18T05:15:08.384Z,9.40
2022-09-18T05:17:35.272Z,9.40
2022-09-18T05:20:02.328Z,9.50
2022-09-18T05:22:30.035Z,9.50
2022-09-18T05:24:56.901Z,9.60
2022-09-18T05:27:26.906Z,9.60
2022-09-18T05:29:54.197Z,9.60
2022-09-18T05:32:21.215Z,9.60
2022-09-18T05:34:51.914Z,9.60
2022-09-18T05:37:19.625Z,9.60
2022-09-18T05:39:46.469Z,9.60
2022-09-18T05:42:13.474Z,9.60
2022-09-18T05:44:40.478Z,9.60
2022-09-18T05:47:07.354Z,9.60
2022-09-18T05:49:34.644Z,9.60
2022-09-18T05:52:01.781Z,9.60
2022-09-18T05:54:28.631Z,9.70
2022-09-18T05:56:55.474Z,9.80
2022-09-18T05:59:22.570Z,9.80
2022-09-18T06:01:49.863Z,9.80
2022-09-18T06:04:16.989Z,9.90
2022-09-18T06:06:43.964Z,9.90
2022-09-18T06:09:10.810Z,9.90
2022-09-18T06:11:37.755Z,9.90
2022-09-18T06:14:04.844Z,9.90
2022-09-18T06:16:31.794Z,9.90
2022-09-18T06:18:58.784Z,10.00
2022-09-18T06:21:25.790Z,10.00
2022-09-18T06:23:52.624Z,10.30
2022-09-18T06:26:19.652Z,10.30
2022-09-18T06:28:48.490Z,10.80
2022-09-18T06:31:15.474Z,12.00
2022-09-18T06:33:42.445Z,12.50
2022-09-18T06:36:14.228Z,13.10
2022-09-18T06:38:42.631Z,13.20
2022-09-18T06:41:09.793Z,13.20
2022-09-18T06:43:36.889Z,13.50
2022-09-18T06:46:04.612Z,12.60
2022-09-18T06:48:31.890Z,12.40
2022-09-18T06:50:59.853Z,11.90
2022-09-18T06:53:27.152Z,11.50
2022-09-18T06:55:58.176Z,11.60
2022-09-18T06:58:25.292Z,11.40
2022-09-18T07:00:52.290Z,11.60
2022-09-18T07:03:19.407Z,11.40
2022-09-18T07:05:46.666Z,11.40
2022-09-18T07:08:14.055Z,11.60
2022-09-18T07:10:41.195Z,11.40
2022-09-18T07:13:08.583Z,11.30
2022-09-18T07:15:35.486Z,11.40
2022-09-18T07:18:04.432Z,11.60
2022-09-18T07:20:31.445Z,12.00
2022-09-18T07:23:01.169Z,12.50
2022-09-18T07:25:30.339Z,13.00
2022-09-18T07:28:03.305Z,13.30
2022-09-18T07:30:30.330Z,14.10
2022-09-18T07:32:57.185Z,14.10
2022-09-18T07:35:24.147Z,14.50
2022-09-18T07:37:51.108Z,15.20
2022-09-18T07:40:18.555Z,15.40
2022-09-18T07:42:45.839Z,15.60
2022-09-18T07:45:13.288Z,15.90
2022-09-18T07:47:40.369Z,15.70
2022-09-18T07:50:09.265Z,16.20
2022-09-18T07:52:36.251Z,15.80
2022-09-18T07:55:03.679Z,15.00
2022-09-18T07:57:30.566Z,14.40
2022-09-18T07:59:57.712Z,14.60
2022-09-18T08:02:24.930Z,14.30
2022-09-18T08:04:51.935Z,14.10
2022-09-18T08:07:19.041Z,13.70
2022-09-18T08:09:46.005Z,13.50
2022-09-18T08:12:12.882Z,13.30
2022-09-18T08:14:39.946Z,13.20
2022-09-18T08:17:07.000Z,12.90
2022-09-18T08:19:34.369Z,12.90
2022-09-18T08:22:01.537Z,13.00
2022-09-18T08:24:29.197Z,13.00
2022-09-18T08:27:03.207Z,13.00
2022-09-18T08:29:30.914Z,13.00
2022-09-18T08:31:59.301Z,13.30
2022-09-18T08:34:27.177Z,13.00
2022-09-18T08:36:55.514Z,13.20
2022-09-18T08:39:22.408Z,13.20
2022-09-18T08:42:23.985Z,13.40
2022-09-18T08:45:04.184Z,13.00
2022-09-18T08:47:41.217Z,12.80
2022-09-18T08:50:38.565Z,12.80
2022-09-18T08:53:22.527Z,13.10
2022-09-18T08:55:51.780Z,13.30
2022-09-18T08:58:31.179Z,13.70
2022-09-18T09:01:03.232Z,13.70
2022-09-18T09:03:48.712Z,13.60
2022-09-18T09:06:19.844Z,13.80
2022-09-18T09:08:53.141Z,13.50
2022-09-18T09:11:37.307Z,13.40
2022-09-18T09:14:30.219Z,13.50
2022-09-18T09:17:41.863Z,13.70
2022-09-18T09:20:20.892Z,13.60
2022-09-18T09:22:51.612Z,13.60
2022-09-18T09:25:42.100Z,13.80
2022-09-18T09:28:17.978Z,13.10
2022-09-18T09:30:49.154Z,13.30
2022-09-18T09:33:31.342Z,13.30
2022-09-18T09:36:23.456Z,13.30
2022-09-18T09:39:15.358Z,13.20
2022-09-18T09:41:54.081Z,13.10
2022-09-18T09:44:44.087Z,13.20
2022-09-18T09:47:30.507Z,13.30
2022-09-18T09:50:34.176Z,13.40
2022-09-18T09:53:09.513Z,13.70
2022-09-18T09:55:56.195Z,13.40
2022-09-18T09:58:32.939Z,13.40
2022-09-18T10:01:16.003Z,13.30
2022-09-18T10:04:07.515Z,13.40
2022-09-18T10:06:56.683Z,13.40
2022-09-18T10:09:40.890Z,13.50
2022-09-18T10:12:51.929Z,13.60
2022-09-18T10:15:39.864Z,13.60
2022-09-18T10:18:32.997Z,13.60
2022-09-18T10:21:07.787Z,13.60
2022-09-18T10:23:39.501Z,13.60
2022-09-18T10:26:06.911Z,13.80
2022-09-18T10:28:34.016Z,13.60
2022-09-18T10:31:05.679Z,13.70
2022-09-18T10:33:37.965Z,14.00
2022-09-18T10:36:19.720Z,14.20
2022-09-18T10:38:47.469Z,14.20
2022-09-18T10:41:31.474Z,14.20
2022-09-18T10:44:00.729Z,14.30
2022-09-18T10:46:32.930Z,13.90
2022-09-18T10:49:23.252Z,13.60
2022-09-18T10:52:27.254Z,13.80
2022-09-18T10:55:06.401Z,13.90
2022-09-18T10:57:43.927Z,14.10
2022-09-18T11:00:14.580Z,14.30
2022-09-18T11:02:49.297Z,14.40
2022-09-18T11:05:19.194Z,14.40
2022-09-18T11:07:51.134Z,14.30
2022-09-18T11:10:20.939Z,14.10
2022-09-18T11:12:55.868Z,14.00
2022-09-18T11:15:32.568Z,13.80
2022-09-18T11:18:03.911Z,13.90
2022-09-18T11:20:32.100Z,14.00
2022-09-18T11:23:19.512Z,14.20
2022-09-18T11:25:47.247Z,14.30
2022-09-18T11:28:28.341Z,14.50
2022-09-18T11:30:58.969Z,14.60
2022-09-18T11:33:30.876Z,14.70
2022-09-18T11:36:07.895Z,14.60
2022-09-18T11:38:44.313Z,14.40
2022-09-18T11:41:13.292Z,14.50
2022-09-18T11:43:43.103Z,14.70
2022-09-18T11:46:51.209Z,14.40
2022-09-18T11:49:23.273Z,14.30
2022-09-18T11:51:58.236Z,14.10
2022-09-18T11:54:57.449Z,14.40
2022-09-18T11:57:42.178Z,14.60
2022-09-18T12:00:20.884Z,14.50
2022-09-18T12:03:17.090Z,14.40
2022-09-18T12:05:59.033Z,14.20
2022-09-18T12:08:50.601Z,14.10
2022-09-18T12:11:43.100Z,14.00
2022-09-18T12:14:32.374Z,14.20
2022-09-18T12:17:02.046Z,14.40
2022-09-18T12:19:40.678Z,14.00
2022-09-18T12:22:36.871Z,14.00
2022-09-18T12:25:12.220Z,14.40
2022-09-18T12:27:46.569Z,14.40
2022-09-18T12:30:22.436Z,14.50
2022-09-18T12:32:59.023Z,14.70
2022-09-18T12:35:29.029Z,14.00
2022-09-18T12:38:22.230Z,13.90
2022-09-18T12:41:24.975Z,13.60
2022-09-18T12:44:42.485Z,14.20
2022-09-18T12:47:30.870Z,14.10
2022-09-18T12:50:12.873Z,14.60
2022-09-18T12:53:06.581Z,15.00
2022-09-18T12:55:57.571Z,15.10
2022-09-18T12:58:51.176Z,15.00
2022-09-18T13:01:35.599Z,14.70
2022-09-18T13:04:11.151Z,14.60
2022-09-18T13:06:45.366Z,14.70
2022-09-18T13:09:26.461Z,14.70
2022-09-18T13:12:02.121Z,14.50
2022-09-18T13:14:45.617Z,14.40
2022-09-18T13:17:19.897Z,14.60
2022-09-18T13:20:06.625Z,14.30
2022-09-18T13:22:37.634Z,14.30
2022-09-18T13:25:20.167Z,14.80
2022-09-18T13:27:47.430Z,14.40
2022-09-18T13:30:30.900Z,14.70
2022-09-18T13:32:59.758Z,14.40
2022-09-18T13:35:32.223Z,14.20
2022-09-18T13:38:16.157Z,13.70
2022-09-18T13:40:47.291Z,13.80
2022-09-18T13:43:23.324Z,13.50
2022-09-18T13:45:50.534Z,13.70
2022-09-18T13:48:29.981Z,14.00
2022-09-18T13:51:05.995Z,13.90
2022-09-18T13:53:43.909Z,13.90
2022-09-18T13:56:16.249Z,13.80
2022-09-18T13:58:56.101Z,13.70
2022-09-18T14:01:41.726Z,13.80
2022-09-18T14:04:39.444Z,13.80
2022-09-18T14:07:18.703Z,13.80
2022-09-18T14:10:03.020Z,13.70
2022-09-18T14:12:33.948Z,13.80
2022-09-18T14:15:00.964Z,13.80
2022-09-18T14:17:30.065Z,13.80
2022-09-18T14:20:08.100Z,13.60
2022-09-18T14:22:38.314Z,13.60
2022-09-18T14:25:07.390Z,13.50
2022-09-18T14:27:37.253Z,13.50
2022-09-18T14:30:25.172Z,13.70
2022-09-18T14:33:03.701Z,13.70
2022-09-18T14:35:34.049Z,13.80
2022-09-18T14:38:00.963Z,13.90
2022-09-18T14:40:28.312Z,13.80
2022-09-18T14:42:55.864Z,13.80
2022-09-18T14:45:31.598Z,13.90
2022-09-18T14:48:18.999Z,13.80
2022-09-18T14:50:59.263Z,13.80
2022-09-18T14:53:28.420Z,13.80
2022-09-18T14:56:01.035Z,13.80
2022-09-18T14:58:42.386Z,13.80
2022-09-18T15:01:16.685Z,13.90
2022-09-18T15:03:47.362Z,13.90
2022-09-18T15:06:22.811Z,13.80
2022-09-18T15:08:52.780Z,13.80
2022-09-18T15:11:21.911Z,13.90
2022-09-18T15:13:52.522Z,14.00
2022-09-18T15:16:31.969Z,13.90
2022-09-18T15:19:00.661Z,13.80
2022-09-18T15:21:33.187Z,13.60
2022-09-18T15:24:02.475Z,13.70
2022-09-18T15:26:41.374Z,13.80
2022-09-18T15:29:19.648Z,13.90
2022-09-18T15:31:47.237Z,13.90
2022-09-18T15:34:18.521Z,13.80
2022-09-18T15:36:46.062Z,13.80
2022-09-18T15:39:33.576Z,13.80
2022-09-18T15:42:24.049Z,13.80
2022-09-18T15:44:51.037Z,13.90
2022-09-18T15:47:31.445Z,14.00
2022-09-18T15:49:59.650Z,13.70
2022-09-18T15:52:38.624Z,13.70
2022-09-18T15:55:31.941Z,13.70
2022-09-18T15:58:04.188Z,13.70
2022-09-18T16:00:37.038Z,13.60
2022-09-18T16:03:09.185Z,13.60
2022-09-18T16:05:38.168Z,13.70
2022-09-18T16:08:17.444Z,13.70
2022-09-18T16:10:49.039Z,13.80
2022-09-18T16:13:15.973Z,13.80
2022-09-18T16:15:47.873Z,13.80
2022-09-18T16:18:29.294Z,13.70
2022-09-18T16:20:57.743Z,13.70
2022-09-18T16:23:50.739Z,13.70
2022-09-18T16:26:24.871Z,13.60
2022-09-18T16:28:56.065Z,13.70
2022-09-18T16:31:26.779Z,13.70
2022-09-18T16:33:59.903Z,13.80
2022-09-18T16:36:46.883Z,13.70
2022-09-18T16:39:22.734Z,13.70
2022-09-18T16:41:50.131Z,13.70
2022-09-18T16:44:18.341Z,13.60
2022-09-18T16:46:51.009Z,13.60
2022-09-18T16:49:25.338Z,13.60
2022-09-18T16:51:55.344Z,13.60
2022-09-18T16:54:22.288Z,13.60
2022-09-18T16:56:55.738Z,13.60
2022-09-18T16:59:26.618Z,13.50
2022-09-18T17:02:04.904Z,13.60
2022-09-18T17:04:33.348Z,13.60
2022-09-18T17:07:00.875Z,13.50
2022-09-18T17:09:28.402Z,13.50
2022-09-18T17:11:56.355Z,13.50
2022-09-18T17:14:25.270Z,13.50
2022-09-18T17:16:52.700Z,13.50
2022-09-18T17:19:19.999Z,13.40
2022-09-18T17:21:47.385Z,13.50
2022-09-18T17:24:14.563Z,13.50
2022-09-18T17:26:42.390Z,13.40
2022-09-18T17:29:11.337Z,13.40
2022-09-18T17:31:38.443Z,13.40
2022-09-18T17:34:07.280Z,13.40
2022-09-18T17:36:36.893Z,13.30
2022-09-18T17:39:06.592Z,13.40
2022-09-18T17:41:34.251Z,13.30
2022-09-18T17:44:01.645Z,13.30
2022-09-18T17:46:28.763Z,13.30
2022-09-18T17:48:57.314Z,13.30
2022-09-18T17:51:28.423Z,13.30
2022-09-18T17:54:03.035Z,13.30
2022-09-18T17:56:31.099Z,13.30
2022-09-18T17:59:00.290Z,13.30
2022-09-18T18:01:29.042Z,13.30
2022-09-18T18:03:57.397Z,13.20
2022-09-18T18:06:25.114Z,13.20
2022-09-18T18:08:52.248Z,13.20
2022-09-18T18:11:22.244Z,13.20
2022-09-18T18:13:52.071Z,13.20
2022-09-18T18:16:25.131Z,13.20
2022-09-18T18:18:55.368Z,13.20
2022-09-18T18:21:23.607Z,13.30
2022-09-18T18:23:56.469Z,13.20
2022-09-18T18:26:23.624Z,13.30
2022-09-18T18:28:50.690Z,13.30
2022-09-18T18:31:18.023Z,13.30
2022-09-18T18:33:45.038Z,13.20
2022-09-18T18:36:15.584Z,13.10
2022-09-18T18:38:44.257Z,13.10
2022-09-18T18:41:13.250Z,13.10
2022-09-18T18:43:41.123Z,13.10
2022-09-18T18:46:12.859Z,13.00
2022-09-18T18:48:41.058Z,13.00
2022-09-18T18:51:14.176Z,12.90
2022-09-18T18:53:42.677Z,12.80
2022-09-18T18:56:15.414Z,12.80
2022-09-18T18:58:44.032Z,12.70
2022-09-18T19:01:16.186Z,12.70
2022-09-18T19:03:49.302Z,12.70
2022-09-18T19:06:17.128Z,12.70
2022-09-18T19:08:47.322Z,12.60
2022-09-18T19:11:16.345Z,12.70
2022-09-18T19:13:45.457Z,12.70
2022-09-18T19:16:13.183Z,12.70
2022-09-18T19:18:41.208Z,12.60
2022-09-18T19:21:08.414Z,12.70
2022-09-18T19:23:35.885Z,12.60
2022-09-18T19:26:03.115Z,12.60
2022-09-18T19:28:31.229Z,12.60
2022-09-18T19:31:05.642Z,12.50
2022-09-18T19:33:33.386Z,12.60
2022-09-18T19:36:07.697Z,12.50
2022-09-18T19:38:37.072Z,12.60
2022-09-18T19:41:22.477Z,12.70
2022-09-18T19:43:49.888Z,12.60
2022-09-18T19:46:27.914Z,12.60
2022-09-18T19:48:55.088Z,12.60
2022-09-18T19:51:22.909Z,12.60
2022-09-18T19:53:49.918Z,12.60
2022-09-18T19:56:39.234Z,12.60
2022-09-18T19:59:04.412Z,12.60
2022-09-18T20:01:31.449Z,12.50
2022-09-18T20:03:58.887Z,12.50
2022-09-18T20:06:25.971Z,12.50
2022-09-18T20:08:52.871Z,12.50
2022-09-18T20:11:19.830Z,12.50
2022-09-18T20:13:53.632Z,12.50
2022-09-18T20:16:21.281Z,12.50
2022-09-18T20:18:48.615Z,12.50
2022-09-18T20:21:17.730Z,12.50
2022-09-18T20:23:45.369Z,12.40
2022-09-18T20:26:15.554Z,12.50
2022-09-18T20:28:43.015Z,12.40
2022-09-18T20:31:12.028Z,12.40
2022-09-18T20:33:39.398Z,12.40
2022-09-18T20:36:08.438Z,12.40
2022-09-18T20:38:38.460Z,12.40
2022-09-18T20:41:08.491Z,12.20
2022-09-18T20:43:38.791Z,12.20
2022-09-18T20:46:07.782Z,12.00
2022-09-18T20:48:41.552Z,12.00
2022-09-18T20:51:14.358Z,11.90
2022-09-18T20:53:45.172Z,11.80
2022-09-18T20:56:14.441Z,11.80
2022-09-18T20:58:42.434Z,11.70
2022-09-18T21:01:12.167Z,11.70
2022-09-18T21:03:41.415Z,11.60
2022-09-18T21:06:22.511Z,11.60
2022-09-18T21:08:53.644Z,11.60
2022-09-18T21:11:31.559Z,11.60
2022-09-18T21:14:03.284Z,11.60
2022-09-18T21:16:34.314Z,11.60
2022-09-18T21:19:03.557Z,11.70
2022-09-18T21:21:36.947Z,11.70
2022-09-18T21:24:04.307Z,11.70
2022-09-18T21:26:42.839Z,11.70
2022-09-18T21:29:14.202Z,11.60
2022-09-18T21:31:42.821Z,11.70
2022-09-18T21:34:23.566Z,11.60
2022-09-18T21:36:52.100Z,11.70
2022-09-18T21:39:19.016Z,11.70
2022-09-18T21:41:46.613Z,11.70
2022-09-18T21:44:23.646Z,11.70
2022-09-18T21:46:52.153Z,11.70
2022-09-18T21:49:19.524Z,11.70
2022-09-18T21:51:46.948Z,11.70
2022-09-18T21:54:17.809Z,11.70
2022-09-18T21:56:49.579Z,11.70
2022-09-18T21:59:16.828Z,11.70
2022-09-18T22:01:43.822Z,11.70
2022-09-18T22:04:11.341Z,11.70
2022-09-18T22:06:41.753Z,11.70
2022-09-18T22:09:24.772Z,11.70
2022-09-18T22:11:52.897Z,11.70
2022-09-18T22:14:32.264Z,11.60
2022-09-18T22:17:05.402Z,11.60
2022-09-18T22:19:41.344Z,11.60
2022-09-18T22:22:10.515Z,11.70
2022-09-18T22:24:38.607Z,11.60
2022-09-18T22:27:08.687Z,11.60
2022-09-18T22:29:39.634Z,11.60
2022-09-18T22:32:07.250Z,11.60
2022-09-18T22:34:35.095Z,11.50
2022-09-18T22:37:03.060Z,11.50
2022-09-18T22:39:30.217Z,11.50
2022-09-18T22:41:57.666Z,11.50
2022-09-18T22:44:25.218Z,11.40
2022-09-18T22:46:54.541Z,11.40
2022-09-18T22:49:22.932Z,11.40
2022-09-18T22:51:50.713Z,11.40
2022-09-18T22:54:23.770Z,11.30
2022-09-18T22:56:52.409Z,11.30
2022-09-18T22:59:23.459Z,11.30
2022-09-18T23:01:57.733Z,11.20
2022-09-18T23:04:29.067Z,11.20
2022-09-18T23:06:57.544Z,11.20
2022-09-18T23:09:25.103Z,11.10
2022-09-18T23:11:53.257Z,11.10
2022-09-18T23:14:26.693Z,11.10
2022-09-18T23:16:54.111Z,11.10
2022-09-18T23:19:26.927Z,11.10
2022-09-18T23:21:55.181Z,11.10
2022-09-18T23:24:22.881Z,11.10
2022-09-18T23:26:51.603Z,11.10
2022-09-18T23:29:21.550Z,11.00
2022-09-18T23:31:50.663Z,11.00
2022-09-18T23:34:19.734Z,11.00
2022-09-18T23:36:49.249Z,11.00
2022-09-18T23:39:21.519Z,11.00
2022-09-18T23:41:49.131Z,10.90
2022-09-18T23:44:17.865Z,10.90
2022-09-18T23:46:45.848Z,10.90
2022-09-18T23:49:14.005Z,10.80
2022-09-18T23:51:43.942Z,10.80
2022-09-18T23:54:19.764Z,10.80
2022-09-18T23:56:47.540Z,10.70
2022-09-18T23:59:18.647Z,10.70
